createdAt,value
2019-03-12T00:01:20.273Z,3.40
2019-03-12T00:03:54.181Z,3.47
2019-03-12T00:06:43.076Z,3.40
2019-03-12T00:09:18.476Z,3.70
2019-03-12T00:12:00.085Z,3.57
2019-03-12T00:14:37.003Z,3.30
2019-03-12T00:17:16.306Z,3.70
2019-03-12T00:20:12.308Z,3.57
2019-03-12T00:22:47.378Z,3.07
2019-03-12T00:25:25.893Z,3.80
2019-03-12T00:28:01.908Z,3.53
2019-03-12T00:30:38.340Z,3.30
2019-03-12T00:33:13.644Z,3.17
2019-03-12T00:35:52.075Z,3.60
2019-03-12T00:38:27.651Z,3.47
2019-03-12T00:41:08.258Z,3.20
2019-03-12T00:43:44.437Z,3.27
2019-03-12T00:46:26.886Z,3.67
2019-03-12T00:49:05.927Z,3.07
2019-03-12T00:51:47.535Z,3.80
2019-03-12T00:54:17.442Z,3.07
2019-03-12T00:56:52.880Z,3.60
2019-03-12T00:59:23.681Z,3.33
2019-03-12T01:02:17.170Z,3.60
2019-03-12T01:07:22.550Z,3.27
2019-03-12T01:09:56.918Z,3.20
2019-03-12T01:12:36.615Z,3.33
2019-03-12T01:15:10.731Z,3.10
2019-03-12T01:17:41.282Z,2.90
2019-03-12T01:20:12.993Z,3.50
2019-03-12T01:22:48.144Z,3.57
2019-03-12T01:25:29.538Z,3.23
2019-03-12T01:28:03.216Z,3.53
2019-03-12T01:30:36.534Z,3.23
2019-03-12T01:33:07.339Z,3.70
2019-03-12T01:35:39.802Z,3.57
2019-03-12T01:38:16.802Z,3.57
2019-03-12T01:40:51.678Z,3.60
2019-03-12T01:43:25.918Z,3.23
2019-03-12T01:46:04.422Z,3.53
2019-03-12T01:48:40.804Z,3.33
2019-03-12T01:51:15.863Z,3.30
2019-03-12T01:53:55.291Z,3.70
2019-03-12T01:56:29.302Z,3.27
2019-03-12T01:59:20.730Z,3.40
2019-03-12T02:01:58.153Z,3.47
2019-03-12T02:04:29.486Z,3.20
2019-03-12T02:07:00.691Z,3.40
2019-03-12T02:09:51.045Z,3.57
2019-03-12T02:12:21.674Z,3.33
2019-03-12T02:14:56.330Z,3.33
2019-03-12T02:17:31.834Z,3.50
2019-03-12T02:20:18.990Z,3.17
2019-03-12T02:22:53.926Z,3.30
2019-03-12T02:25:26.973Z,3.40
2019-03-12T02:27:58.102Z,3.70
2019-03-12T02:30:37.778Z,3.30
2019-03-12T02:33:12.330Z,3.50
2019-03-12T02:35:45.283Z,3.23
2019-03-12T02:38:20.545Z,3.43
2019-03-12T02:40:55.647Z,3.70
2019-03-12T02:43:28.355Z,3.40
2019-03-12T02:46:12.464Z,3.37
2019-03-12T02:48:46.201Z,3.50
2019-03-12T02:51:19.445Z,3.23
2019-03-12T02:53:50.712Z,3.30
2019-03-12T02:56:24.601Z,3.57
2019-03-12T02:58:55.228Z,3.30
2019-03-12T03:01:26.062Z,3.83
2019-03-12T03:03:56.838Z,3.43
2019-03-12T03:06:55.261Z,3.30
2019-03-12T03:09:27.203Z,3.30
2019-03-12T03:12:05.026Z,3.30
2019-03-12T03:14:50.272Z,3.57
2019-03-12T03:17:44.101Z,3.30
2019-03-12T03:20:20.230Z,3.83
2019-03-12T03:22:53.079Z,3.00
2019-03-12T03:25:25.649Z,3.20
2019-03-12T03:27:57.939Z,3.30
2019-03-12T03:30:47.955Z,3.30
2019-03-12T03:33:20.917Z,3.20
2019-03-12T03:35:55.721Z,2.93
2019-03-12T03:38:41.942Z,3.73
2019-03-12T03:41:12.219Z,3.40
2019-03-12T03:43:46.838Z,3.43
2019-03-12T03:46:31.179Z,3.20
2019-03-12T03:49:03.305Z,3.83
2019-03-12T03:51:44.627Z,3.33
2019-03-12T03:54:15.350Z,3.30
2019-03-12T03:56:55.517Z,3.50
2019-03-12T03:59:26.548Z,3.17
2019-03-12T04:01:58.477Z,3.40
2019-03-12T04:04:38.093Z,3.23
2019-03-12T04:07:12.101Z,3.43
2019-03-12T04:09:46.918Z,3.70
2019-03-12T04:12:19.165Z,3.40
2019-03-12T04:14:49.895Z,3.27
2019-03-12T04:17:25.464Z,3.40
2019-03-12T04:19:56.301Z,3.50
2019-03-12T04:22:26.848Z,3.80
2019-03-12T04:24:59.040Z,3.87
2019-03-12T04:27:31.859Z,3.50
2019-03-12T04:30:16.101Z,3.77
2019-03-12T04:32:48.195Z,3.40
2019-03-12T04:35:19.520Z,3.60
2019-03-12T04:37:50.206Z,3.47
2019-03-12T04:40:21.140Z,3.60
2019-03-12T04:43:25.096Z,3.20
2019-03-12T04:45:55.885Z,3.20
2019-03-12T04:48:26.958Z,3.50
2019-03-12T04:51:06.331Z,3.90
2019-03-12T04:53:49.099Z,3.73
2019-03-12T04:56:19.891Z,3.40
2019-03-12T04:59:04.384Z,3.37
2019-03-12T05:01:42.891Z,3.23
2019-03-12T05:04:27.798Z,3.10
2019-03-12T05:07:54.082Z,3.27
2019-03-12T05:13:28.646Z,3.60
2019-03-12T05:16:13.278Z,3.27
2019-03-12T05:18:52.853Z,3.37
2019-03-12T05:21:55.528Z,3.40
2019-03-12T05:24:35.962Z,3.90
2019-03-12T05:27:58.881Z,3.40
2019-03-12T05:30:38.392Z,3.83
2019-03-12T05:33:29.233Z,3.50
2019-03-12T05:35:51.660Z,3.73
2019-03-12T05:38:30.384Z,3.33
2019-03-12T05:41:08.325Z,4.57
2019-03-12T05:44:00.083Z,3.63
2019-03-12T05:46:34.951Z,3.73
2019-03-12T05:49:11.507Z,3.97
2019-03-12T05:51:43.458Z,3.90
2019-03-12T05:54:18.788Z,3.67
2019-03-12T05:56:56.002Z,3.97
2019-03-12T06:00:09.149Z,3.63
2019-03-12T06:03:15.798Z,3.53
2019-03-12T06:12:38.149Z,3.47
2019-03-12T06:15:27.162Z,3.37
2019-03-12T06:18:32.110Z,2.97
2019-03-12T06:21:22.078Z,3.10
2019-03-12T06:23:58.015Z,3.30
2019-03-12T06:26:37.305Z,3.47
2019-03-12T06:29:21.336Z,3.83
2019-03-12T06:32:18.549Z,3.40
2019-03-12T06:35:21.361Z,4.20
2019-03-12T06:38:10.467Z,2.90
2019-03-12T06:41:09.604Z,3.20
2019-03-12T06:43:53.810Z,3.13
2019-03-12T06:46:53.132Z,3.37
2019-03-12T06:49:45.061Z,3.00
2019-03-12T06:52:44.508Z,3.07
2019-03-12T06:55:45.059Z,2.73
2019-03-12T06:58:49.841Z,3.20
2019-03-12T07:02:04.444Z,3.27
2019-03-12T07:05:07.447Z,2.70
2019-03-12T07:08:19.500Z,2.83
2019-03-12T07:10:55.125Z,3.03
2019-03-12T07:14:10.955Z,3.07
2019-03-12T07:17:09.000Z,2.73
2019-03-12T07:19:55.023Z,2.40
2019-03-12T07:22:40.572Z,2.27
2019-03-12T07:25:51.210Z,2.60
2019-03-12T07:28:50.223Z,2.40
2019-03-12T07:31:39.916Z,2.63
2019-03-12T07:34:50.087Z,2.93
2019-03-12T07:37:56.781Z,2.33
2019-03-12T07:40:53.027Z,2.80
2019-03-12T07:47:54.522Z,2.03
2019-03-12T07:51:44.071Z,2.00
2019-03-12T07:54:25.397Z,2.20
2019-03-12T07:57:35.757Z,2.42
2019-03-12T08:01:21.040Z,2.05
2019-03-12T08:04:26.051Z,1.90
2019-03-12T08:11:41.856Z,2.87
2019-03-12T08:14:58.565Z,2.67
2019-03-12T08:18:00.434Z,3.10
2019-03-12T08:24:46.246Z,3.07
2019-03-12T08:28:27.682Z,3.23
2019-03-12T08:32:16.892Z,2.23
2019-03-12T08:42:23.327Z,2.20
2019-03-12T08:50:30.985Z,1.75
2019-03-12T08:55:58.596Z,1.92
2019-03-12T08:59:46.107Z,2.00
2019-03-12T09:03:42.425Z,2.00
2019-03-12T09:09:30.336Z,2.40
2019-03-12T09:12:39.334Z,2.20
2019-03-12T09:19:00.972Z,2.10
2019-03-12T09:21:45.005Z,2.50
2019-03-12T09:25:13.727Z,2.40
2019-03-12T09:28:36.858Z,2.50
2019-03-12T09:31:43.271Z,2.10
2019-03-12T09:35:01.589Z,2.00
2019-03-12T09:41:44.720Z,2.20
2019-03-12T09:45:04.192Z,2.75
2019-03-12T09:48:16.548Z,2.20
2019-03-12T09:51:58.674Z,2.15
2019-03-12T09:55:12.920Z,1.90
2019-03-12T10:03:32.924Z,2.58
2019-03-12T10:06:27.495Z,1.90
2019-03-12T10:17:35.030Z,2.08
2019-03-12T10:20:33.414Z,1.85
2019-03-12T10:27:21.330Z,1.80
2019-03-12T10:33:34.069Z,1.87
2019-03-12T10:40:36.706Z,1.75
2019-03-12T10:43:32.987Z,1.80
2019-03-12T10:47:17.075Z,1.95
2019-03-12T10:53:38.538Z,1.42
2019-03-12T11:00:09.072Z,2.25
2019-03-12T11:06:56.713Z,1.67
2019-03-12T11:18:12.347Z,1.30
2019-03-12T11:34:41.025Z,1.72
2019-03-12T11:37:42.874Z,1.80
2019-03-12T11:41:15.329Z,1.92
2019-03-12T11:51:07.663Z,1.92
2019-03-12T12:05:44.537Z,1.50
2019-03-12T12:06:28.346Z,2.27
2019-03-12T12:13:04.532Z,1.90
2019-03-12T12:16:11.746Z,2.52
2019-03-12T12:19:11.779Z,1.70
2019-03-12T12:22:26.723Z,2.05
2019-03-12T12:29:30.070Z,2.05
2019-03-12T12:35:51.829Z,2.17
2019-03-12T12:58:03.745Z,2.25
2019-03-12T13:03:06.437Z,1.82
2019-03-12T13:06:34.583Z,2.05
2019-03-12T13:18:50.854Z,2.30
2019-03-12T13:21:51.080Z,2.58
2019-03-12T13:48:46.676Z,2.27
2019-03-12T13:49:05.232Z,2.02
2019-03-12T13:52:20.192Z,2.60
2019-03-12T14:24:53.093Z,2.22
2019-03-12T14:31:23.481Z,2.72
2019-03-12T15:12:44.842Z,3.10
2019-03-12T15:25:26.772Z,2.70
2019-03-12T15:39:02.045Z,3.43
2019-03-12T15:42:22.498Z,3.53
2019-03-12T15:48:23.673Z,3.90
2019-03-12T15:51:19.095Z,5.27
2019-03-12T15:57:55.324Z,3.17
2019-03-12T16:00:56.765Z,4.47
2019-03-12T16:04:35.636Z,5.63
2019-03-12T16:11:11.727Z,3.83
2019-03-12T16:14:00.424Z,6.07
2019-03-12T16:17:23.668Z,5.77
2019-03-12T16:33:39.890Z,6.73
2019-03-12T16:36:13.894Z,6.77
2019-03-12T16:38:57.533Z,5.40
2019-03-12T16:41:56.426Z,5.40
2019-03-12T16:47:47.395Z,5.60
2019-03-12T16:50:28.538Z,6.20
2019-03-12T16:53:21.770Z,6.43
2019-03-12T16:59:44.723Z,8.40
2019-03-12T17:02:30.723Z,8.50
2019-03-12T17:05:25.994Z,6.27
2019-03-12T17:07:47.487Z,9.73
2019-03-12T17:10:20.769Z,9.87
2019-03-12T17:13:04.501Z,10.93
2019-03-12T17:15:54.731Z,11.37
2019-03-12T17:18:53.308Z,13.00
2019-03-12T17:21:36.318Z,13.23
2019-03-12T17:24:19.249Z,11.03
2019-03-12T17:26:55.158Z,8.13
2019-03-12T17:29:26.277Z,10.43
2019-03-12T17:32:10.375Z,7.67
2019-03-12T17:37:44.257Z,12.93
2019-03-12T17:40:26.660Z,15.97
2019-03-12T17:43:02.674Z,13.73
2019-03-12T17:45:47.021Z,14.33
2019-03-12T17:48:26.982Z,13.17
2019-03-12T17:51:05.741Z,13.10
2019-03-12T17:54:01.621Z,11.77
2019-03-12T17:56:39.066Z,10.93
2019-03-12T17:59:31.129Z,12.00
2019-03-12T18:02:02.205Z,8.63
2019-03-12T18:04:35.927Z,10.77
2019-03-12T18:07:10.086Z,7.90
2019-03-12T18:09:56.039Z,8.07
2019-03-12T18:12:43.150Z,10.30
2019-03-12T18:15:19.511Z,11.45
2019-03-12T18:17:57.440Z,10.33
2019-03-12T18:20:33.472Z,11.70
2019-03-12T18:23:07.473Z,10.90
2019-03-12T18:25:50.060Z,9.80
2019-03-12T18:28:46.290Z,11.10
2019-03-12T18:31:13.670Z,8.97
2019-03-12T18:33:54.468Z,10.03
2019-03-12T18:36:29.993Z,11.53
2019-03-12T18:39:06.322Z,11.50
2019-03-12T18:41:58.147Z,12.03
2019-03-12T18:44:33.026Z,11.90
2019-03-12T18:47:07.382Z,10.47
2019-03-12T18:49:46.486Z,10.10
2019-03-12T18:52:20.084Z,8.70
2019-03-12T18:54:53.521Z,9.20
2019-03-12T18:57:28.245Z,9.93
2019-03-12T19:00:12.684Z,9.10
2019-03-12T19:03:31.729Z,9.80
2019-03-12T19:05:30.051Z,8.73
2019-03-12T19:08:04.374Z,8.57
2019-03-12T19:10:52.368Z,7.60
2019-03-12T19:13:26.504Z,8.83
2019-03-12T19:16:00.251Z,10.23
2019-03-12T19:18:36.286Z,7.87
2019-03-12T19:21:12.367Z,6.70
2019-03-12T19:23:56.509Z,7.73
2019-03-12T19:26:30.751Z,7.67
2019-03-12T19:29:02.777Z,8.97
2019-03-12T19:32:18.609Z,7.40
2019-03-12T19:34:49.241Z,7.03
2019-03-12T19:37:21.914Z,8.07
2019-03-12T19:40:01.043Z,6.77
2019-03-12T19:42:34.804Z,8.07
2019-03-12T19:45:17.858Z,7.50
2019-03-12T19:49:01.464Z,8.93
2019-03-12T19:51:11.405Z,7.33
2019-03-12T19:53:43.298Z,7.47
2019-03-12T19:56:17.521Z,7.87
2019-03-12T19:59:22.882Z,7.47
2019-03-12T20:01:47.979Z,6.73
2019-03-12T20:04:24.359Z,7.20
2019-03-12T20:07:04.209Z,9.30
2019-03-12T20:10:05.954Z,6.50
2019-03-12T20:13:25.202Z,6.53
2019-03-12T20:16:37.128Z,6.10
2019-03-12T20:23:40.559Z,6.10
2019-03-12T20:27:15.719Z,6.37
2019-03-12T20:37:00.775Z,6.93
2019-03-12T20:40:17.942Z,6.50
2019-03-12T20:43:46.348Z,4.83
2019-03-12T20:47:28.740Z,4.30
2019-03-12T20:50:47.388Z,5.10
2019-03-12T20:54:25.106Z,7.10
2019-03-12T20:59:54.119Z,5.10
2019-03-12T21:01:38.137Z,4.67
2019-03-12T21:04:47.757Z,5.00
2019-03-12T21:19:59.698Z,4.77
2019-03-12T21:22:49.950Z,4.37
2019-03-12T21:26:11.970Z,4.90
2019-03-12T21:29:15.950Z,4.23
2019-03-12T21:38:05.808Z,4.60
2019-03-12T21:40:51.018Z,4.07
2019-03-12T21:43:41.002Z,4.20
2019-03-12T21:46:24.973Z,3.90
2019-03-12T21:49:48.145Z,4.13
2019-03-12T21:52:48.045Z,3.97
2019-03-12T21:56:16.208Z,3.67
2019-03-12T22:02:58.339Z,3.60
2019-03-12T22:05:36.262Z,3.53
2019-03-12T22:08:49.075Z,3.53
2019-03-12T22:11:41.574Z,3.57
2019-03-12T22:14:18.604Z,3.73
2019-03-12T22:16:53.885Z,4.00
2019-03-12T22:19:27.174Z,3.40
2019-03-12T22:22:30.918Z,3.30
2019-03-12T22:25:01.411Z,3.60
2019-03-12T22:27:36.427Z,3.80
2019-03-12T22:30:13.417Z,3.30
2019-03-12T22:32:50.848Z,3.80
2019-03-12T22:35:24.738Z,3.70
2019-03-12T22:37:55.298Z,3.67
2019-03-12T22:40:48.403Z,3.53
2019-03-12T22:47:07.480Z,3.10
2019-03-12T22:49:21.449Z,3.13
2019-03-12T22:54:49.216Z,3.10
2019-03-12T22:57:21.396Z,2.90
2019-03-12T22:59:54.902Z,2.87
2019-03-12T23:02:55.414Z,3.03
2019-03-12T23:05:46.266Z,3.20
2019-03-12T23:08:34.206Z,3.33
2019-03-12T23:11:46.955Z,3.37
2019-03-12T23:14:25.253Z,3.67
2019-03-12T23:17:15.872Z,3.30
2019-03-12T23:23:06.770Z,3.10
2019-03-12T23:28:35.207Z,2.77
2019-03-12T23:31:27.984Z,3.17
2019-03-12T23:34:35.955Z,2.80
2019-03-12T23:37:54.184Z,3.10
2019-03-12T23:40:30.917Z,3.00
2019-03-12T23:43:24.355Z,3.00
2019-03-12T23:46:48.503Z,3.43
2019-03-12T23:50:18.790Z,2.63
2019-03-12T23:53:12.369Z,2.80
2019-03-12T23:55:55.060Z,3.20
2019-03-12T23:59:22.793Z,2.77
